This is the latest recevied weather packets stored in our database for station/object ED5YAW-10. If no packets are shown the sender has not sent any weather packets the latest 10 day(s).
| Time | Temp. | Humidity | Pressure | Rain* | Wind** | Luminosity | Snow |
|---|---|---|---|---|---|---|---|
| 1777480878 | 15° C | 100% | 872 hPa | - | - | - | - |
| 1777480278 | 15° C | 100% | 871 hPa | - | - | - | - |
| 1777480274 | 15° C | 100% | 871 hPa | - | - | - | - |
| 1777479674 | 15.56° C | 100% | 871 hPa | - | - | - | - |
| 1777479670 | 15.56° C | 100% | 871 hPa | - | - | - | - |
| 1777479070 | 16.11° C | 89% | 871 hPa | - | - | - | - |
| 1777479066 | 16.11° C | 89% | 871 hPa | - | - | - | - |
| 1777478466 | 17.22° C | 83% | 872 hPa | - | - | - | - |
| 1777478461 | 17.22° C | 83% | 872 hPa | - | - | - | - |
| 1777477869 | 17.22° C | 82% | 872 hPa | - | - | - | - |
| 1777477861 | 17.22° C | 82% | 872 hPa | - | - | - | - |
| 1777477857 | 17.22° C | 82% | 872 hPa | - | - | - | - |
| 1777477257 | 18.33° C | 75% | 872 hPa | - | - | - | - |
| 1777477253 | 18.33° C | 75% | 872 hPa | - | - | - | - |
| 1777476653 | 18.89° C | 82% | 871 hPa | - | - | - | - |
| 1777476649 | 18.89° C | 82% | 871 hPa | - | - | - | - |
| 1777476049 | 18.33° C | 91% | 871 hPa | - | - | - | - |
| 1777476044 | 18.33° C | 91% | 871 hPa | - | - | - | - |
| 1777475444 | 17.78° C | 95% | 872 hPa | - | - | - | - |
| 1777475440 | 17.78° C | 95% | 872 hPa | - | - | - | - |
| 1777474840 | 17.22° C | 100% | 872 hPa | - | - | - | - |
| 1777474836 | 17.22° C | 100% | 872 hPa | - | - | - | - |
| 1777474236 | 16.11° C | 100% | 872 hPa | - | - | - | - |
| 1777474232 | 16.11° C | 100% | 872 hPa | - | - | - | - |
| 1777473632 | 16.67° C | 87% | 872 hPa | - | - | - | - |
* Rain since midnight (hover to see other rain measurements)
** Current wind speed in m/s (hover to see current wind gust speed)